sensor_id;sensor_type;location;lat;lon;timestamp;pressure;altitude;pressure_sealevel;temperature;humidity
68580;BME280;55555;52.136;5.424;2022-11-15T00:00:03;101048.97;;;6.65;94.53
68580;BME280;55555;52.136;5.424;2022-11-15T00:02:52;101048.06;;;6.66;94.36
68580;BME280;55555;52.136;5.424;2022-11-15T00:05:38;101045.44;;;6.66;93.96
68580;BME280;55555;52.136;5.424;2022-11-15T00:08:24;101058.66;;;6.65;94.63
68580;BME280;55555;52.136;5.424;2022-11-15T00:11:12;101059.53;;;6.65;94.54
68580;BME280;55555;52.136;5.424;2022-11-15T00:13:58;101056.03;;;6.63;95.09
68580;BME280;55555;52.136;5.424;2022-11-15T00:16:47;101050.72;;;6.66;95.34
68580;BME280;55555;52.136;5.424;2022-11-15T00:19:33;101048.06;;;6.68;95.07
68580;BME280;55555;52.136;5.424;2022-11-15T00:22:20;101042.78;;;6.66;95.16
68580;BME280;55555;52.136;5.424;2022-11-15T00:25:06;101041.03;;;6.67;95.32
68580;BME280;55555;52.136;5.424;2022-11-15T00:27:57;101033.03;;;6.70;95.52
68580;BME280;55555;52.136;5.424;2022-11-15T00:30:44;101029.47;;;6.72;96.00
68580;BME280;55555;52.136;5.424;2022-11-15T00:33:30;101027.69;;;6.73;96.39
68580;BME280;55555;52.136;5.424;2022-11-15T00:36:18;101039.09;;;6.76;95.17
68580;BME280;55555;52.136;5.424;2022-11-15T00:39:04;101040.00;;;6.75;95.26
68580;BME280;55555;52.136;5.424;2022-11-15T00:41:51;101035.59;;;6.76;96.09
68580;BME280;55555;52.136;5.424;2022-11-15T00:44:37;101037.28;;;6.80;96.85
68580;BME280;55555;52.136;5.424;2022-11-15T00:47:23;101044.28;;;6.82;96.56
68580;BME280;55555;52.136;5.424;2022-11-15T00:50:09;101039.84;;;6.84;95.98
68580;BME280;55555;52.136;5.424;2022-11-15T00:52:59;101038.94;;;6.85;96.91
68580;BME280;55555;52.136;5.424;2022-11-15T00:55:46;101024.81;;;6.88;96.42
68580;BME280;55555;52.136;5.424;2022-11-15T00:58:32;101020.41;;;6.88;96.28
68580;BME280;55555;52.136;5.424;2022-11-15T01:01:18;101019.44;;;6.92;96.74
68580;BME280;55555;52.136;5.424;2022-11-15T01:04:04;101012.34;;;6.94;96.32
68580;BME280;55555;52.136;5.424;2022-11-15T01:06:51;101000.84;;;6.97;96.78
68580;BME280;55555;52.136;5.424;2022-11-15T01:09:37;100995.56;;;6.97;96.91
68580;BME280;55555;52.136;5.424;2022-11-15T01:12:24;101006.09;;;7.02;96.10
68580;BME280;55555;52.136;5.424;2022-11-15T01:15:10;101006.97;;;7.02;97.01
68580;BME280;55555;52.136;5.424;2022-11-15T01:17:56;101001.56;;;7.07;96.93
68580;BME280;55555;52.136;5.424;2022-11-15T01:20:42;100998.03;;;7.08;96.31
68580;BME280;55555;52.136;5.424;2022-11-15T01:23:29;100999.75;;;7.10;96.48
68580;BME280;55555;52.136;5.424;2022-11-15T01:26:16;100992.66;;;7.12;96.55
68580;BME280;55555;52.136;5.424;2022-11-15T01:29:02;100993.47;;;7.16;96.73
68580;BME280;55555;52.136;5.424;2022-11-15T01:31:49;100996.97;;;7.18;97.14
68580;BME280;55555;52.136;5.424;2022-11-15T01:34:35;100981.94;;;7.20;97.14
68580;BME280;55555;52.136;5.424;2022-11-15T01:37:21;100981.88;;;7.24;96.91
68580;BME280;55555;52.136;5.424;2022-11-15T01:40:08;100983.53;;;7.28;96.43
68580;BME280;55555;52.136;5.424;2022-11-15T01:42:54;100982.63;;;7.31;96.87
68580;BME280;55555;52.136;5.424;2022-11-15T01:45:41;100978.16;;;7.35;95.97
68580;BME280;55555;52.136;5.424;2022-11-15T01:48:32;100978.09;;;7.36;96.84
68580;BME280;55555;52.136;5.424;2022-11-15T01:51:21;100976.28;;;7.38;96.45
68580;BME280;55555;52.136;5.424;2022-11-15T01:54:13;100969.16;;;7.43;96.67
68580;BME280;55555;52.136;5.424;2022-11-15T01:57:06;100964.72;;;7.45;96.86
68580;BME280;55555;52.136;5.424;2022-11-15T01:59:54;100961.09;;;7.48;97.10
68580;BME280;55555;52.136;5.424;2022-11-15T02:02:42;100962.81;;;7.52;96.72
68580;BME280;55555;52.136;5.424;2022-11-15T02:05:30;100968.06;;;7.53;96.98
68580;BME280;55555;52.136;5.424;2022-11-15T02:08:16;100966.28;;;7.55;96.94
68580;BME280;55555;52.136;5.424;2022-11-15T02:11:08;100964.41;;;7.59;96.81
68580;BME280;55555;52.136;5.424;2022-11-15T02:13:56;100962.59;;;7.62;97.39
68580;BME280;55555;52.136;5.424;2022-11-15T02:32:58;100936.38;;;7.90;98.18
68580;BME280;55555;52.136;5.424;2022-11-15T02:36:15;100930.09;;;7.96;97.64
68580;BME280;55555;52.136;5.424;2022-11-15T02:39:46;100912.38;;;7.99;97.82
68580;BME280;55555;52.136;5.424;2022-11-15T02:42:43;100919.31;;;8.03;97.33
68580;BME280;55555;52.136;5.424;2022-11-15T02:46:06;100910.44;;;8.06;97.66
68580;BME280;55555;52.136;5.424;2022-11-15T02:48:58;100911.22;;;8.11;97.13
68580;BME280;55555;52.136;5.424;2022-11-15T02:51:46;100907.63;;;8.12;97.66
68580;BME280;55555;52.136;5.424;2022-11-15T02:54:34;100902.25;;;8.17;98.55
68580;BME280;55555;52.136;5.424;2022-11-15T02:57:39;100896.75;;;8.24;98.22
68580;BME280;55555;52.136;5.424;2022-11-15T03:00:40;100899.38;;;8.26;97.76
68580;BME280;55555;52.136;5.424;2022-11-15T03:07:11;100882.50;;;8.31;97.87
68580;BME280;55555;52.136;5.424;2022-11-15T03:10:18;100879.75;;;8.34;98.16
68580;BME280;55555;52.136;5.424;2022-11-15T03:16:15;100892.88;;;8.40;98.09
68580;BME280;55555;52.136;5.424;2022-11-15T03:22:28;100885.66;;;8.46;97.42
68580;BME280;55555;52.136;5.424;2022-11-15T03:25:22;100885.59;;;8.49;97.84
68580;BME280;55555;52.136;5.424;2022-11-15T03:28:12;100889.09;;;8.51;97.30
68580;BME280;55555;52.136;5.424;2022-11-15T03:31:05;100888.06;;;8.55;97.56
68580;BME280;55555;52.136;5.424;2022-11-15T03:34:22;100894.09;;;8.63;98.43
68580;BME280;55555;52.136;5.424;2022-11-15T03:37:12;100890.47;;;8.65;97.78
68580;BME280;55555;52.136;5.424;2022-11-15T03:40:00;100895.66;;;8.70;98.39
68580;BME280;55555;52.136;5.424;2022-11-15T03:43:07;100888.50;;;8.73;98.01
68580;BME280;55555;52.136;5.424;2022-11-15T03:46:38;100883.88;;;8.82;98.46
68580;BME280;55555;52.136;5.424;2022-11-15T03:49:36;100882.94;;;8.83;98.13
68580;BME280;55555;52.136;5.424;2022-11-15T03:52:24;100894.41;;;8.85;98.10
68580;BME280;55555;52.136;5.424;2022-11-15T03:55:13;100888.88;;;8.92;98.84
68580;BME280;55555;52.136;5.424;2022-11-15T03:58:03;100885.28;;;8.95;98.99
68580;BME280;55555;52.136;5.424;2022-11-15T04:00:49;100887.91;;;8.96;98.73
68580;BME280;55555;52.136;5.424;2022-11-15T04:03:35;100882.50;;;8.99;99.05
68580;BME280;55555;52.136;5.424;2022-11-15T04:06:22;100875.38;;;9.01;98.57
68580;BME280;55555;52.136;5.424;2022-11-15T04:09:08;100876.13;;;9.06;99.07
68580;BME280;55555;52.136;5.424;2022-11-15T04:11:55;100885.84;;;9.07;98.14
68580;BME280;55555;52.136;5.424;2022-11-15T04:14:41;100879.53;;;9.10;98.85
68580;BME280;55555;52.136;5.424;2022-11-15T04:17:52;100880.34;;;9.13;98.16
68580;BME280;55555;52.136;5.424;2022-11-15T04:20:40;100873.22;;;9.15;98.32
68580;BME280;55555;52.136;5.424;2022-11-15T04:23:44;100874.84;;;9.20;99.10
68580;BME280;55555;52.136;5.424;2022-11-15T04:26:51;100873.03;;;9.22;98.78
68580;BME280;55555;52.136;5.424;2022-11-15T04:29:37;100873.03;;;9.22;99.13
68580;BME280;55555;52.136;5.424;2022-11-15T04:32:23;100872.00;;;9.27;98.87
68580;BME280;55555;52.136;5.424;2022-11-15T04:35:09;100862.25;;;9.28;98.52
68580;BME280;55555;52.136;5.424;2022-11-15T04:37:56;100872.75;;;9.31;99.40
68580;BME280;55555;52.136;5.424;2022-11-15T04:40:43;100871.81;;;9.33;99.25
68580;BME280;55555;52.136;5.424;2022-11-15T04:43:30;100860.31;;;9.33;99.54
68580;BME280;55555;52.136;5.424;2022-11-15T04:46:17;100856.72;;;9.35;99.19
68580;BME280;55555;52.136;5.424;2022-11-15T04:49:03;100855.72;;;9.39;99.57
68580;BME280;55555;52.136;5.424;2022-11-15T04:51:49;100859.13;;;9.43;99.84
68580;BME280;55555;52.136;5.424;2022-11-15T04:54:35;100862.63;;;9.45;99.83
68580;BME280;55555;52.136;5.424;2022-11-15T04:57:22;100852.03;;;9.43;99.00
68580;BME280;55555;52.136;5.424;2022-11-15T05:00:10;100862.50;;;9.49;99.64
68580;BME280;55555;52.136;5.424;2022-11-15T05:02:58;100854.50;;;9.51;98.91
68580;BME280;55555;52.136;5.424;2022-11-15T05:06:03;100854.38;;;9.54;99.06
68580;BME280;55555;52.136;5.424;2022-11-15T05:08:50;100854.34;;;9.56;99.25
68580;BME280;55555;52.136;5.424;2022-11-15T05:11:37;100871.97;;;9.58;98.89
68580;BME280;55555;52.136;5.424;2022-11-15T05:14:23;100861.28;;;9.61;99.56
68580;BME280;55555;52.136;5.424;2022-11-15T05:17:09;100860.44;;;9.59;98.92
68580;BME280;55555;52.136;5.424;2022-11-15T05:19:55;100871.91;;;9.61;98.95
68580;BME280;55555;52.136;5.424;2022-11-15T05:22:42;100871.78;;;9.64;99.06
68580;BME280;55555;52.136;5.424;2022-11-15T05:25:28;100875.31;;;9.65;99.31
68580;BME280;55555;52.136;5.424;2022-11-15T05:28:14;100872.66;;;9.65;99.47
68580;BME280;55555;52.136;5.424;2022-11-15T05:31:05;100864.81;;;9.62;99.36
68580;BME280;55555;52.136;5.424;2022-11-15T05:33:55;100875.34;;;9.63;99.33
68580;BME280;55555;52.136;5.424;2022-11-15T05:36:42;100876.31;;;9.62;99.39
68580;BME280;55555;52.136;5.424;2022-11-15T05:39:30;100874.44;;;9.64;99.11
68580;BME280;55555;52.136;5.424;2022-11-15T05:42:17;100877.09;;;9.64;99.66
68580;BME280;55555;52.136;5.424;2022-11-15T05:45:06;100881.38;;;9.70;99.46
68580;BME280;55555;52.136;5.424;2022-11-15T05:47:56;100873.38;;;9.71;99.16
68580;BME280;55555;52.136;5.424;2022-11-15T05:50:46;100874.28;;;9.70;99.51
68580;BME280;55555;52.136;5.424;2022-11-15T05:53:34;100887.41;;;9.75;99.77
68580;BME280;55555;52.136;5.424;2022-11-15T05:56:21;100889.09;;;9.77;99.74
68580;BME280;55555;52.136;5.424;2022-11-15T05:59:08;100889.94;;;9.79;99.61
68580;BME280;55555;52.136;5.424;2022-11-15T06:01:55;100891.69;;;9.80;99.50
68580;BME280;55555;52.136;5.424;2022-11-15T06:04:42;100880.03;;;9.84;99.57
68580;BME280;55555;52.136;5.424;2022-11-15T06:07:29;100885.25;;;9.87;99.46
68580;BME280;55555;52.136;5.424;2022-11-15T06:10:16;100889.66;;;9.88;99.25
68580;BME280;55555;52.136;5.424;2022-11-15T06:13:04;100900.28;;;9.88;98.85
68580;BME280;55555;52.136;5.424;2022-11-15T06:15:50;100897.53;;;9.92;99.17
68580;BME280;55555;52.136;5.424;2022-11-15T06:18:38;100892.97;;;9.95;99.54
68580;BME280;55555;52.136;5.424;2022-11-15T06:21:24;100892.84;;;10.00;99.89
68580;BME280;55555;52.136;5.424;2022-11-15T06:24:12;100903.44;;;10.01;99.23
68580;BME280;55555;52.136;5.424;2022-11-15T06:26:59;100902.53;;;10.02;99.82
68580;BME280;55555;52.136;5.424;2022-11-15T06:29:45;100901.66;;;10.02;99.24
68580;BME280;55555;52.136;5.424;2022-11-15T06:32:31;100907.75;;;10.05;99.28
68580;BME280;55555;52.136;5.424;2022-11-15T06:35:17;100908.63;;;10.06;99.10
68580;BME280;55555;52.136;5.424;2022-11-15T06:38:08;100911.16;;;10.09;99.36
68580;BME280;55555;52.136;5.424;2022-11-15T06:40:55;100908.47;;;10.10;98.83
68580;BME280;55555;52.136;5.424;2022-11-15T06:43:47;100900.53;;;10.09;99.23
68580;BME280;55555;52.136;5.424;2022-11-15T06:46:33;100893.34;;;10.12;99.37
68580;BME280;55555;52.136;5.424;2022-11-15T06:49:19;100897.78;;;10.12;99.23
68580;BME280;55555;52.136;5.424;2022-11-15T06:52:06;100903.09;;;10.12;99.54
68580;BME280;55555;52.136;5.424;2022-11-15T06:54:52;100908.47;;;10.10;99.16
68580;BME280;55555;52.136;5.424;2022-11-15T06:57:49;100912.00;;;10.11;98.89
68580;BME280;55555;52.136;5.424;2022-11-15T07:00:36;100924.38;;;10.12;99.72
68580;BME280;55555;52.136;5.424;2022-11-15T07:03:22;100924.34;;;10.13;99.17
68580;BME280;55555;52.136;5.424;2022-11-15T07:06:09;100928.69;;;10.16;100.00
68580;BME280;55555;52.136;5.424;2022-11-15T07:08:55;100925.09;;;10.17;99.80
68580;BME280;55555;52.136;5.424;2022-11-15T07:11:41;100925.97;;;10.17;99.69
68580;BME280;55555;52.136;5.424;2022-11-15T07:14:28;100929.47;;;10.19;99.31
68580;BME280;55555;52.136;5.424;2022-11-15T07:17:14;100924.22;;;10.18;99.38
68580;BME280;55555;52.136;5.424;2022-11-15T07:20:00;100929.47;;;10.19;100.00
68580;BME280;55555;52.136;5.424;2022-11-15T07:22:46;100937.38;;;10.22;99.76
68580;BME280;55555;52.136;5.424;2022-11-15T07:25:32;100935.53;;;10.24;100.00
68580;BME280;55555;52.136;5.424;2022-11-15T07:28:18;100931.13;;;10.23;99.64
68580;BME280;55555;52.136;5.424;2022-11-15T07:31:06;100932.88;;;10.24;99.70
68580;BME280;55555;52.136;5.424;2022-11-15T07:33:53;100925.75;;;10.27;99.84
68580;BME280;55555;52.136;5.424;2022-11-15T07:36:39;100922.03;;;10.31;99.49
68580;BME280;55555;52.136;5.424;2022-11-15T07:39:25;100936.38;;;10.27;99.83
68580;BME280;55555;52.136;5.424;2022-11-15T07:42:11;100937.16;;;10.29;99.64
68580;BME280;55555;52.136;5.424;2022-11-15T07:45:16;100936.16;;;10.33;99.66
68580;BME280;55555;52.136;5.424;2022-11-15T07:48:03;100924.66;;;10.32;99.19
68580;BME280;55555;52.136;5.424;2022-11-15T07:50:49;100927.28;;;10.34;99.77
68580;BME280;55555;52.136;5.424;2022-11-15T07:53:36;100926.25;;;10.38;99.79
68580;BME280;55555;52.136;5.424;2022-11-15T07:56:22;100919.25;;;10.35;99.73
68580;BME280;55555;52.136;5.424;2022-11-15T07:59:08;100920.13;;;10.36;99.66
68580;BME280;55555;52.136;5.424;2022-11-15T08:01:54;100922.81;;;10.34;99.86
68580;BME280;55555;52.136;5.424;2022-11-15T08:04:41;100924.53;;;10.37;99.46
68580;BME280;55555;52.136;5.424;2022-11-15T08:07:29;100919.25;;;10.35;99.72
68580;BME280;55555;52.136;5.424;2022-11-15T08:10:16;100911.88;;;10.43;100.00
68580;BME280;55555;52.136;5.424;2022-11-15T08:13:06;100919.03;;;10.41;100.00
68580;BME280;55555;52.136;5.424;2022-11-15T08:16:01;100918.03;;;10.45;99.39
68580;BME280;55555;52.136;5.424;2022-11-15T08:18:50;100917.13;;;10.46;99.89
68580;BME280;55555;52.136;5.424;2022-11-15T08:21:36;100912.72;;;10.45;99.44
68580;BME280;55555;52.136;5.424;2022-11-15T08:24:22;100916.19;;;10.47;98.98
68580;BME280;55555;52.136;5.424;2022-11-15T08:27:09;100920.53;;;10.50;99.17
68580;BME280;55555;52.136;5.424;2022-11-15T08:30:00;100913.31;;;10.53;99.15
68580;BME280;55555;52.136;5.424;2022-11-15T08:32:48;100911.47;;;10.55;100.00
68580;BME280;55555;52.136;5.424;2022-11-15T08:35:35;100913.13;;;10.59;100.00
68580;BME280;55555;52.136;5.424;2022-11-15T08:38:21;100907.91;;;10.56;98.88
68580;BME280;55555;52.136;5.424;2022-11-15T08:41:14;100907.81;;;10.59;99.49
68580;BME280;55555;52.136;5.424;2022-11-15T08:44:08;100896.19;;;10.62;99.41
68580;BME280;55555;52.136;5.424;2022-11-15T08:46:54;100890.81;;;10.64;99.11
68580;BME280;55555;52.136;5.424;2022-11-15T08:49:41;100887.19;;;10.66;99.81
68580;BME280;55555;52.136;5.424;2022-11-15T08:52:27;100891.59;;;10.67;99.26
68580;BME280;55555;52.136;5.424;2022-11-15T08:55:14;100883.56;;;10.69;99.49
68580;BME280;55555;52.136;5.424;2022-11-15T08:58:02;100881.63;;;10.72;99.93
68580;BME280;55555;52.136;5.424;2022-11-15T09:00:48;100886.03;;;10.73;99.45
68580;BME280;55555;52.136;5.424;2022-11-15T09:03:34;100877.88;;;10.79;99.19
68580;BME280;55555;52.136;5.424;2022-11-15T09:06:21;100877.72;;;10.82;98.60
68580;BME280;55555;52.136;5.424;2022-11-15T09:09:07;100883.78;;;10.87;99.65
68580;BME280;55555;52.136;5.424;2022-11-15T09:11:54;100887.03;;;10.95;99.36
68580;BME280;55555;52.136;5.424;2022-11-15T09:14:46;100889.50;;;11.02;98.91
68580;BME280;55555;52.136;5.424;2022-11-15T09:17:33;100883.06;;;11.07;98.78
68580;BME280;55555;52.136;5.424;2022-11-15T09:20:19;100873.09;;;11.14;98.83
68580;BME280;55555;52.136;5.424;2022-11-15T09:23:05;100871.88;;;11.22;99.34
68580;BME280;55555;52.136;5.424;2022-11-15T09:25:52;100862.78;;;11.28;99.54
68580;BME280;55555;52.136;5.424;2022-11-15T09:28:57;100870.72;;;11.29;98.31
68580;BME280;55555;52.136;5.424;2022-11-15T09:31:53;100869.00;;;11.28;98.08
68580;BME280;55555;52.136;5.424;2022-11-15T09:34:39;100873.50;;;11.26;97.94
68580;BME280;55555;52.136;5.424;2022-11-15T09:37:25;100883.06;;;11.32;98.16
68580;BME280;55555;52.136;5.424;2022-11-15T09:40:13;100870.72;;;11.29;97.88
68580;BME280;55555;52.136;5.424;2022-11-15T09:47:15;100867.59;;;11.18;97.11
68580;BME280;55555;52.136;5.424;2022-11-15T09:50:14;100864.81;;;11.21;96.50
68580;BME280;55555;52.136;5.424;2022-11-15T09:52:45;100860.53;;;11.17;96.94
68580;BME280;55555;52.136;5.424;2022-11-15T09:55:14;100859.44;;;11.23;96.06
68580;BME280;55555;52.136;5.424;2022-11-15T09:57:59;100854.66;;;11.56;96.53
68580;BME280;55555;52.136;5.424;2022-11-15T10:00:44;100858.47;;;11.72;95.90
68580;BME280;55555;52.136;5.424;2022-11-15T10:03:34;100855.72;;;11.75;94.88
68580;BME280;55555;52.136;5.424;2022-11-15T10:06:04;100852.38;;;11.92;95.05
68580;BME280;55555;52.136;5.424;2022-11-15T10:08:50;100855.75;;;11.97;95.90
68580;BME280;55555;52.136;5.424;2022-11-15T10:11:30;100840.63;;;11.97;94.79
68580;BME280;55555;52.136;5.424;2022-11-15T10:14:16;100845.31;;;11.91;95.10
68580;BME280;55555;52.136;5.424;2022-11-15T10:17:06;100835.84;;;12.05;93.52
68580;BME280;55555;52.136;5.424;2022-11-15T10:19:53;100839.09;;;12.12;92.98
68580;BME280;55555;52.136;5.424;2022-11-15T10:22:43;100852.38;;;12.14;92.26
68580;BME280;55555;52.136;5.424;2022-11-15T10:27:55;100848.56;;;11.99;90.59
68580;BME280;55555;52.136;5.424;2022-11-15T10:30:47;100834.41;;;11.97;93.26
68580;BME280;55555;52.136;5.424;2022-11-15T10:33:35;100831.75;;;11.97;93.14
68580;BME280;55555;52.136;5.424;2022-11-15T10:41:30;100820.44;;;11.90;91.92
68580;BME280;55555;52.136;5.424;2022-11-15T10:46:47;100807.09;;;11.90;91.83
68580;BME280;55555;52.136;5.424;2022-11-15T10:49:26;100808.84;;;11.91;90.09
68580;BME280;55555;52.136;5.424;2022-11-15T10:52:15;100797.69;;;12.03;91.84
68580;BME280;55555;52.136;5.424;2022-11-15T10:54:52;100801.72;;;12.14;92.38
68580;BME280;55555;52.136;5.424;2022-11-15T10:57:26;100798.75;;;11.99;90.92
68580;BME280;55555;52.136;5.424;2022-11-15T11:00:13;100789.94;;;11.97;92.71
68580;BME280;55555;52.136;5.424;2022-11-15T11:03:31;100773.50;;;12.08;91.43
68580;BME280;55555;52.136;5.424;2022-11-15T11:08:36;100768.53;;;12.21;93.58
68580;BME280;55555;52.136;5.424;2022-11-15T11:11:05;100765.47;;;12.30;91.92
68580;BME280;55555;52.136;5.424;2022-11-15T11:13:39;100769.41;;;12.41;91.11
68580;BME280;55555;52.136;5.424;2022-11-15T11:16:34;100776.22;;;12.49;91.22
68580;BME280;55555;52.136;5.424;2022-11-15T11:19:33;100778.41;;;12.39;90.73
68580;BME280;55555;52.136;5.424;2022-11-15T11:22:23;100774.28;;;12.32;87.46
68580;BME280;55555;52.136;5.424;2022-11-15T11:25:19;100770.19;;;12.23;87.74
68580;BME280;55555;52.136;5.424;2022-11-15T11:33:52;100766.03;;;12.16;89.10
68580;BME280;55555;52.136;5.424;2022-11-15T11:50:37;100741.00;;;11.98;89.31
68580;BME280;55555;52.136;5.424;2022-11-15T11:53:14;100742.75;;;11.99;88.01
68580;BME280;55555;52.136;5.424;2022-11-15T11:55:53;100742.44;;;12.07;90.34
68580;BME280;55555;52.136;5.424;2022-11-15T11:58:36;100730.88;;;12.06;90.67
68580;BME280;55555;52.136;5.424;2022-11-15T12:01:17;100728.75;;;12.15;92.09
68580;BME280;55555;52.136;5.424;2022-11-15T12:04:01;100719.75;;;12.17;91.25
68580;BME280;55555;52.136;5.424;2022-11-15T12:06:54;100709.75;;;12.22;86.46
68580;BME280;55555;52.136;5.424;2022-11-15T12:09:46;100705.38;;;12.21;89.09
68580;BME280;55555;52.136;5.424;2022-11-15T12:15:12;100692.16;;;12.18;85.88
68580;BME280;55555;52.136;5.424;2022-11-15T12:17:44;100696.56;;;12.19;87.81
68580;BME280;55555;52.136;5.424;2022-11-15T12:20:24;100683.16;;;12.21;87.40
68580;BME280;55555;52.136;5.424;2022-11-15T12:23:19;100689.56;;;12.17;88.47
68580;BME280;55555;52.136;5.424;2022-11-15T12:28:47;100671.22;;;12.09;89.06
68580;BME280;55555;52.136;5.424;2022-11-15T12:34:03;100661.53;;;12.06;86.89
68580;BME280;55555;52.136;5.424;2022-11-15T12:36:48;100654.47;;;12.05;86.55
68580;BME280;55555;52.136;5.424;2022-11-15T12:39:17;100653.47;;;12.08;87.43
68580;BME280;55555;52.136;5.424;2022-11-15T12:52:06;100623.84;;;12.14;85.21
68580;BME280;55555;52.136;5.424;2022-11-15T13:02:24;100613.13;;;12.16;88.10
68580;BME280;55555;52.136;5.424;2022-11-15T13:12:56;100583.16;;;12.11;84.11
68580;BME280;55555;52.136;5.424;2022-11-15T13:15:33;100585.72;;;12.12;88.08
68580;BME280;55555;52.136;5.424;2022-11-15T13:18:35;100586.06;;;12.04;85.60
68580;BME280;55555;52.136;5.424;2022-11-15T13:21:22;100585.94;;;12.07;86.51
68580;BME280;55555;52.136;5.424;2022-11-15T13:24:13;100582.66;;;12.01;86.20
68580;BME280;55555;52.136;5.424;2022-11-15T13:26:42;100580.00;;;12.01;86.73
68580;BME280;55555;52.136;5.424;2022-11-15T13:29:17;100583.53;;;12.01;88.09
68580;BME280;55555;52.136;5.424;2022-11-15T13:31:46;100571.53;;;11.91;86.53
68580;BME280;55555;52.136;5.424;2022-11-15T13:37:30;100561.22;;;11.84;85.60
68580;BME280;55555;52.136;5.424;2022-11-15T13:40:23;100555.00;;;11.83;89.93
68580;BME280;55555;52.136;5.424;2022-11-15T13:42:55;100559.69;;;11.78;86.65
68580;BME280;55555;52.136;5.424;2022-11-15T13:45:24;100560.69;;;11.76;87.18
68580;BME280;55555;52.136;5.424;2022-11-15T13:47:57;100550.06;;;11.74;89.58
68580;BME280;55555;52.136;5.424;2022-11-15T13:50:29;100546.72;;;11.69;88.85
68580;BME280;55555;52.136;5.424;2022-11-15T13:53:03;100547.78;;;11.65;87.50
68580;BME280;55555;52.136;5.424;2022-11-15T13:55:32;100537.31;;;11.60;86.75
68580;BME280;55555;52.136;5.424;2022-11-15T13:58:02;100535.66;;;11.58;86.76
68580;BME280;55555;52.136;5.424;2022-11-15T14:00:41;100534.06;;;11.54;88.31
68580;BME280;55555;52.136;5.424;2022-11-15T14:03:25;100532.41;;;11.51;87.68
68580;BME280;55555;52.136;5.424;2022-11-15T14:06:11;100520.13;;;11.47;86.93
68580;BME280;55555;52.136;5.424;2022-11-15T14:11:37;100517.56;;;11.46;87.06
68580;BME280;55555;52.136;5.424;2022-11-15T14:14:21;100519.59;;;11.39;85.20
68580;BME280;55555;52.136;5.424;2022-11-15T14:16:55;100514.31;;;11.38;88.01
68580;BME280;55555;52.136;5.424;2022-11-15T14:22:18;100506.41;;;11.36;88.37
68580;BME280;55555;52.136;5.424;2022-11-15T14:27:34;100498.56;;;11.33;87.05
68580;BME280;55555;52.136;5.424;2022-11-15T14:30:03;100494.03;;;11.35;86.32
68580;BME280;55555;52.136;5.424;2022-11-15T14:32:44;100474.66;;;11.31;87.25
68580;BME280;55555;52.136;5.424;2022-11-15T14:35:19;100486.97;;;11.34;86.76
68580;BME280;55555;52.136;5.424;2022-11-15T14:37:48;100486.09;;;11.33;87.36
68580;BME280;55555;52.136;5.424;2022-11-15T14:40:18;100484.31;;;11.34;86.48
68580;BME280;55555;52.136;5.424;2022-11-15T14:42:49;100474.53;;;11.34;87.48
68580;BME280;55555;52.136;5.424;2022-11-15T14:45:21;100474.59;;;11.33;87.51
68580;BME280;55555;52.136;5.424;2022-11-15T14:47:49;100465.59;;;11.36;89.24
68580;BME280;55555;52.136;5.424;2022-11-15T14:50:19;100462.84;;;11.37;87.58
68580;BME280;55555;52.136;5.424;2022-11-15T14:52:48;100463.78;;;11.36;88.09
68580;BME280;55555;52.136;5.424;2022-11-15T14:55:24;100453.22;;;11.34;88.35
68580;BME280;55555;52.136;5.424;2022-11-15T14:58:03;100448.81;;;11.33;86.99
68580;BME280;55555;52.136;5.424;2022-11-15T15:00:35;100445.22;;;11.34;87.44
68580;BME280;55555;52.136;5.424;2022-11-15T15:03:06;100437.28;;;11.33;86.35
68580;BME280;55555;52.136;5.424;2022-11-15T15:05:39;100438.16;;;11.33;87.50
68580;BME280;55555;52.136;5.424;2022-11-15T15:08:09;100431.16;;;11.31;86.57
68580;BME280;55555;52.136;5.424;2022-11-15T15:10:43;100429.38;;;11.31;86.82
68580;BME280;55555;52.136;5.424;2022-11-15T15:13:18;100423.09;;;11.32;86.75
68580;BME280;55555;52.136;5.424;2022-11-15T15:15:51;100415.13;;;11.32;87.01
68580;BME280;55555;52.136;5.424;2022-11-15T15:18:19;100423.16;;;11.31;87.18
68580;BME280;55555;52.136;5.424;2022-11-15T15:20:58;100411.53;;;11.33;87.02
68580;BME280;55555;52.136;5.424;2022-11-15T15:23:29;100404.59;;;11.29;86.61
68580;BME280;55555;52.136;5.424;2022-11-15T15:25:57;100394.81;;;11.30;86.01
68580;BME280;55555;52.136;5.424;2022-11-15T15:28:25;100388.53;;;11.31;84.49
68580;BME280;55555;52.136;5.424;2022-11-15T15:31:00;100385.00;;;11.30;88.54
68580;BME280;55555;52.136;5.424;2022-11-15T15:33:28;100390.41;;;11.29;86.96
68580;BME280;55555;52.136;5.424;2022-11-15T15:35:56;100377.16;;;11.27;86.98
68580;BME280;55555;52.136;5.424;2022-11-15T15:38:24;100369.97;;;11.29;88.08
68580;BME280;55555;52.136;5.424;2022-11-15T15:40:51;100367.44;;;11.26;87.07
68580;BME280;55555;52.136;5.424;2022-11-15T15:43:19;100367.50;;;11.25;87.53
68580;BME280;55555;52.136;5.424;2022-11-15T15:45:47;100359.59;;;11.23;86.79
68580;BME280;55555;52.136;5.424;2022-11-15T15:48:16;100368.28;;;11.27;87.63
68580;BME280;55555;52.136;5.424;2022-11-15T15:50:44;100359.50;;;11.25;86.74
68580;BME280;55555;52.136;5.424;2022-11-15T15:53:12;100356.00;;;11.24;88.53
68580;BME280;55555;52.136;5.424;2022-11-15T15:55:40;100354.19;;;11.25;83.89
68580;BME280;55555;52.136;5.424;2022-11-15T15:58:08;100354.19;;;11.25;89.03
68580;BME280;55555;52.136;5.424;2022-11-15T16:00:37;100348.13;;;11.21;84.33
68580;BME280;55555;52.136;5.424;2022-11-15T16:03:05;100345.41;;;11.23;87.18
68580;BME280;55555;52.136;5.424;2022-11-15T16:05:33;100348.00;;;11.24;87.28
68580;BME280;55555;52.136;5.424;2022-11-15T16:08:01;100341.03;;;11.22;86.89
68580;BME280;55555;52.136;5.424;2022-11-15T16:10:32;100340.03;;;11.24;87.22
68580;BME280;55555;52.136;5.424;2022-11-15T16:13:04;100330.31;;;11.23;84.77